createdAt,value
2023-12-02T00:02:09.921Z,6.63
2023-12-02T00:04:36.801Z,6.63
2023-12-02T00:07:03.616Z,6.65
2023-12-02T00:09:30.467Z,6.65
2023-12-02T00:11:57.328Z,6.64
2023-12-02T00:14:24.192Z,6.66
2023-12-02T00:16:51.132Z,6.66
2023-12-02T00:19:18.059Z,6.66
2023-12-02T00:21:44.935Z,6.66
2023-12-02T00:24:11.825Z,6.66
2023-12-02T00:26:39.264Z,6.65
2023-12-02T00:29:06.111Z,6.66
2023-12-02T00:31:34.319Z,6.67
2023-12-02T00:34:01.601Z,6.65
2023-12-02T00:36:28.558Z,6.66
2023-12-02T00:38:55.452Z,6.65
2023-12-02T00:41:22.311Z,6.66
2023-12-02T00:43:49.195Z,6.64
2023-12-02T00:46:16.016Z,6.63
2023-12-02T00:48:42.947Z,6.64
2023-12-02T00:51:10.119Z,6.62
2023-12-02T00:53:36.928Z,6.62
2023-12-02T00:56:04.069Z,6.62
2023-12-02T00:58:38.360Z,6.61
2023-12-02T01:01:09.221Z,6.61
2023-12-02T01:03:36.136Z,6.61
2023-12-02T01:06:03.170Z,6.62
2023-12-02T01:08:30.082Z,6.61
2023-12-02T01:10:56.877Z,6.61
2023-12-02T01:13:23.732Z,6.61
2023-12-02T01:15:51.093Z,6.61
2023-12-02T01:18:18.074Z,6.60
2023-12-02T01:20:45.455Z,6.58
2023-12-02T01:23:12.310Z,6.58
2023-12-02T01:25:39.202Z,6.56
2023-12-02T01:28:06.185Z,6.54
2023-12-02T01:30:33.108Z,6.52
2023-12-02T01:32:59.988Z,6.49
2023-12-02T01:35:26.831Z,6.49
2023-12-02T01:37:54.110Z,6.46
2023-12-02T01:40:21.088Z,6.44
2023-12-02T01:42:47.889Z,6.42
2023-12-02T01:45:15.705Z,6.41
2023-12-02T01:47:43.330Z,6.38
2023-12-02T01:50:10.926Z,6.34
2023-12-02T01:52:37.802Z,6.31
2023-12-02T01:55:04.975Z,6.28
2023-12-02T01:57:31.836Z,6.29
2023-12-02T01:59:58.700Z,6.27
2023-12-02T02:02:26.875Z,6.25
2023-12-02T02:04:53.941Z,6.23
2023-12-02T02:07:21.016Z,6.20
2023-12-02T02:09:49.018Z,6.18
2023-12-02T02:12:16.561Z,6.17
2023-12-02T02:14:43.605Z,6.13
2023-12-02T02:17:10.484Z,6.11
2023-12-02T02:19:37.484Z,6.09
2023-12-02T02:22:05.224Z,6.07
2023-12-02T02:24:32.359Z,6.06
2023-12-02T02:26:59.560Z,6.03
2023-12-02T02:29:26.427Z,6.02
2023-12-02T02:31:53.330Z,6.02
2023-12-02T02:34:20.247Z,6.01
2023-12-02T02:36:47.296Z,5.98
2023-12-02T02:39:14.213Z,6.00
2023-12-02T02:41:41.040Z,5.98
2023-12-02T02:44:07.900Z,5.96
2023-12-02T02:46:34.825Z,5.95
2023-12-02T02:49:01.779Z,5.95
2023-12-02T02:51:28.682Z,5.95
2023-12-02T02:53:55.686Z,5.94
2023-12-02T02:56:23.035Z,5.94
2023-12-02T02:58:49.877Z,5.92
2023-12-02T03:01:16.682Z,5.92
2023-12-02T03:03:43.535Z,5.93
2023-12-02T03:06:10.475Z,5.89
2023-12-02T03:08:37.357Z,5.90
2023-12-02T03:11:04.462Z,5.88
2023-12-02T03:13:31.254Z,5.87
2023-12-02T03:15:58.028Z,5.85
2023-12-02T03:18:24.979Z,5.87
2023-12-02T03:20:51.881Z,5.85
2023-12-02T03:23:18.690Z,5.85
2023-12-02T03:25:45.890Z,5.85
2023-12-02T03:28:13.689Z,5.83
2023-12-02T03:30:40.638Z,5.81
2023-12-02T03:33:07.586Z,5.80
2023-12-02T03:35:34.647Z,5.80
2023-12-02T03:38:01.747Z,5.79
2023-12-02T03:40:28.645Z,5.78
2023-12-02T03:42:55.461Z,5.78
2023-12-02T03:45:22.666Z,5.78
2023-12-02T03:47:49.686Z,5.78
2023-12-02T03:50:18.295Z,5.77
2023-12-02T03:52:46.226Z,5.76
2023-12-02T03:55:13.076Z,5.76
2023-12-02T03:57:40.013Z,5.76
2023-12-02T04:00:14.849Z,5.74
2023-12-02T04:02:41.993Z,5.73
2023-12-02T04:05:09.659Z,5.74
2023-12-02T04:07:37.423Z,5.73
2023-12-02T04:10:04.562Z,5.70
2023-12-02T04:12:31.843Z,5.68
2023-12-02T04:15:01.736Z,5.68
2023-12-02T04:17:29.428Z,5.67
2023-12-02T04:19:56.364Z,5.67
2023-12-02T04:22:23.208Z,5.67
2023-12-02T04:24:50.077Z,5.65
2023-12-02T04:27:17.365Z,5.65
2023-12-02T04:29:44.386Z,5.65
2023-12-02T04:32:11.212Z,5.66
2023-12-02T04:34:38.363Z,5.62
2023-12-02T04:37:05.270Z,5.61
2023-12-02T04:39:32.207Z,5.60
2023-12-02T04:41:59.138Z,5.57
2023-12-02T04:44:25.986Z,5.58
2023-12-02T04:46:52.853Z,5.55
2023-12-02T04:49:19.779Z,5.55
2023-12-02T04:51:46.663Z,5.56
2023-12-02T04:54:13.501Z,5.54
2023-12-02T04:56:40.342Z,5.55
2023-12-02T04:59:07.219Z,5.52
2023-12-02T05:01:34.581Z,5.52
2023-12-02T05:04:01.460Z,5.51
2023-12-02T05:06:28.697Z,5.53
2023-12-02T05:08:55.679Z,5.53
2023-12-02T05:11:23.019Z,5.52
2023-12-02T05:13:50.406Z,5.54
2023-12-02T05:16:17.253Z,5.53
2023-12-02T05:18:44.390Z,5.53
2023-12-02T05:21:11.314Z,5.50
2023-12-02T05:23:38.298Z,5.48
2023-12-02T05:26:05.399Z,5.46
2023-12-02T05:28:32.190Z,5.44
2023-12-02T05:30:58.957Z,5.45
2023-12-02T05:33:25.986Z,5.43
2023-12-02T05:35:52.807Z,5.42
2023-12-02T05:38:19.699Z,5.42
2023-12-02T05:40:46.480Z,5.41
2023-12-02T05:43:13.583Z,5.42
2023-12-02T05:45:40.642Z,5.42
2023-12-02T05:48:07.543Z,5.40
2023-12-02T05:50:34.446Z,5.40
2023-12-02T05:53:01.257Z,5.37
2023-12-02T05:55:28.667Z,5.37
2023-12-02T05:57:55.495Z,5.36
2023-12-02T06:00:22.427Z,5.38
2023-12-02T06:02:49.355Z,5.36
2023-12-02T06:05:16.331Z,5.33
2023-12-02T06:07:43.160Z,5.33
2023-12-02T06:10:10.232Z,5.31
2023-12-02T06:12:37.167Z,5.31
2023-12-02T06:15:04.367Z,5.31
2023-12-02T06:17:32.970Z,5.30
2023-12-02T06:19:59.841Z,5.30
2023-12-02T06:22:26.933Z,5.30
2023-12-02T06:24:53.884Z,5.29
2023-12-02T06:27:20.815Z,5.30
2023-12-02T06:29:48.156Z,5.29
2023-12-02T06:32:15.047Z,5.29
2023-12-02T06:34:41.989Z,5.31
2023-12-02T06:37:08.898Z,5.31
2023-12-02T06:39:35.946Z,5.30
2023-12-02T06:42:13.278Z,5.30
2023-12-02T06:44:46.422Z,5.28
2023-12-02T06:47:14.966Z,5.29
2023-12-02T06:49:41.856Z,5.30
2023-12-02T06:52:09.445Z,5.30
2023-12-02T06:54:38.097Z,5.27
2023-12-02T06:57:09.181Z,5.24
2023-12-02T06:59:36.020Z,5.23
2023-12-02T07:02:03.517Z,5.22
2023-12-02T07:04:30.425Z,5.20
2023-12-02T07:06:57.326Z,5.20
2023-12-02T07:09:24.243Z,5.23
2023-12-02T07:11:51.171Z,5.20
2023-12-02T07:14:17.961Z,5.19
2023-12-02T07:16:45.125Z,5.21
2023-12-02T07:19:12.074Z,5.23
2023-12-02T07:21:38.997Z,5.21
2023-12-02T07:24:06.453Z,5.20
2023-12-02T07:26:33.368Z,5.18
2023-12-02T07:29:00.186Z,5.17
2023-12-02T07:31:27.027Z,5.16
2023-12-02T07:33:55.950Z,5.18
2023-12-02T07:36:23.033Z,5.16
2023-12-02T07:38:49.889Z,5.15
2023-12-02T07:41:16.674Z,5.15
2023-12-02T07:43:43.616Z,5.15
2023-12-02T07:46:10.532Z,5.15
2023-12-02T07:48:37.811Z,5.13
2023-12-02T07:51:08.745Z,5.11
2023-12-02T07:53:35.678Z,5.12
2023-12-02T07:56:02.565Z,5.11
2023-12-02T07:58:29.520Z,5.12
2023-12-02T08:00:56.759Z,5.11
2023-12-02T08:03:25.427Z,5.10
2023-12-02T08:05:52.620Z,5.09
2023-12-02T08:08:19.516Z,5.11
2023-12-02T08:10:48.696Z,5.12
2023-12-02T08:13:15.680Z,5.11
2023-12-02T08:15:42.678Z,5.06
2023-12-02T08:18:09.480Z,5.02
2023-12-02T08:20:36.336Z,5.02
2023-12-02T08:23:03.294Z,5.03
2023-12-02T08:25:30.204Z,5.04
2023-12-02T08:27:57.303Z,5.06
2023-12-02T08:30:24.603Z,5.07
2023-12-02T08:32:51.504Z,5.10
2023-12-02T08:35:18.476Z,5.11
2023-12-02T08:37:45.408Z,5.13
2023-12-02T08:40:12.650Z,5.16
2023-12-02T08:42:39.640Z,5.18
2023-12-02T08:45:07.725Z,5.20
2023-12-02T08:47:34.584Z,5.21
2023-12-02T08:50:01.505Z,5.22
2023-12-02T08:52:28.328Z,5.24
2023-12-02T08:54:55.142Z,5.27
2023-12-02T08:57:22.090Z,5.26
2023-12-02T08:59:48.893Z,5.27
2023-12-02T09:02:16.349Z,5.30
2023-12-02T09:04:43.366Z,5.33
2023-12-02T09:07:10.240Z,5.36
2023-12-02T09:09:37.039Z,5.39
2023-12-02T09:12:04.239Z,5.42
2023-12-02T09:14:31.668Z,5.46
2023-12-02T09:16:58.487Z,5.50
2023-12-02T09:19:31.570Z,5.53
2023-12-02T09:21:58.463Z,5.55
2023-12-02T09:24:34.454Z,5.59
2023-12-02T09:27:01.870Z,5.62
2023-12-02T09:29:39.704Z,5.67
2023-12-02T09:32:46.623Z,5.70
2023-12-02T09:35:13.596Z,5.73
2023-12-02T09:37:40.873Z,5.76
2023-12-02T09:40:37.258Z,5.80
2023-12-02T09:43:20.157Z,5.86
2023-12-02T09:46:06.613Z,5.88
2023-12-02T09:48:36.457Z,5.92
2023-12-02T09:51:04.030Z,5.96
2023-12-02T09:53:45.776Z,6.01
2023-12-02T09:56:26.376Z,6.04
2023-12-02T09:59:04.551Z,6.09
2023-12-02T10:01:48.613Z,6.11
2023-12-02T10:04:42.775Z,6.15
2023-12-02T10:07:39.580Z,6.18
2023-12-02T10:10:14.945Z,6.23
2023-12-02T10:13:00.707Z,6.27
2023-12-02T10:15:29.984Z,6.31
2023-12-02T10:17:58.019Z,6.34
2023-12-02T10:20:29.665Z,6.39
2023-12-02T10:23:10.661Z,6.44
2023-12-02T10:25:44.159Z,6.48
2023-12-02T10:28:34.064Z,6.52
2023-12-02T10:31:02.425Z,6.56
2023-12-02T10:33:35.284Z,6.59
2023-12-02T10:36:09.057Z,6.63
2023-12-02T10:39:11.506Z,6.66
2023-12-02T10:41:53.495Z,6.70
2023-12-02T10:44:23.208Z,6.73
2023-12-02T10:46:51.066Z,6.76
2023-12-02T10:49:18.693Z,6.80
2023-12-02T10:51:46.845Z,6.84
2023-12-02T10:54:18.753Z,6.88
2023-12-02T10:56:47.843Z,6.91
2023-12-02T10:59:15.090Z,6.93
2023-12-02T11:01:54.013Z,6.97
2023-12-02T11:04:34.805Z,7.00
2023-12-02T11:07:05.712Z,7.02
2023-12-02T11:09:50.503Z,7.03
2023-12-02T11:12:24.080Z,7.05
2023-12-02T11:14:55.765Z,7.07
2023-12-02T11:17:25.658Z,7.11
2023-12-02T11:20:28.121Z,7.15
2023-12-02T11:23:10.614Z,7.17
2023-12-02T11:26:06.968Z,7.18
2023-12-02T11:28:39.992Z,7.18
2023-12-02T11:31:38.567Z,7.22
2023-12-02T11:34:32.838Z,7.26
2023-12-02T11:37:36.749Z,7.28
2023-12-02T11:40:05.376Z,7.29
2023-12-02T11:42:44.102Z,7.31
2023-12-02T11:45:21.398Z,7.33
2023-12-02T11:47:51.481Z,7.34
2023-12-02T11:50:44.641Z,7.35
2023-12-02T11:53:23.982Z,7.34
2023-12-02T11:56:09.052Z,7.36
2023-12-02T11:58:42.917Z,7.36
2023-12-02T12:01:35.579Z,7.36
2023-12-02T12:04:08.354Z,7.34
2023-12-02T12:06:47.302Z,7.38
2023-12-02T12:09:24.666Z,7.40
2023-12-02T12:11:53.260Z,7.42
2023-12-02T12:14:23.312Z,7.44
2023-12-02T12:16:50.430Z,7.47
2023-12-02T12:19:17.441Z,7.48
2023-12-02T12:21:45.575Z,7.51
2023-12-02T12:24:12.452Z,7.52
2023-12-02T12:26:39.284Z,7.54
2023-12-02T12:29:06.148Z,7.53
2023-12-02T12:31:35.707Z,7.51
2023-12-02T12:34:05.281Z,7.50
2023-12-02T12:36:32.525Z,7.54
2023-12-02T12:39:00.959Z,7.58
2023-12-02T12:41:28.604Z,7.59
2023-12-02T12:43:55.542Z,7.59
2023-12-02T12:46:22.430Z,7.60
2023-12-02T12:48:52.954Z,7.51
2023-12-02T12:51:20.681Z,7.54
2023-12-02T12:54:00.758Z,7.54
2023-12-02T12:56:42.508Z,7.56
2023-12-02T12:59:11.936Z,7.55
2023-12-02T13:01:49.875Z,7.55
2023-12-02T13:04:33.384Z,7.54
2023-12-02T13:07:14.729Z,7.56
2023-12-02T13:09:44.528Z,7.54
2023-12-02T13:12:18.135Z,7.56
2023-12-02T13:14:59.224Z,7.54
2023-12-02T13:17:27.609Z,7.55
2023-12-02T13:19:57.826Z,7.54
2023-12-02T13:22:25.646Z,7.58
2023-12-02T13:25:00.799Z,7.59
2023-12-02T13:27:35.725Z,7.55
2023-12-02T13:30:07.739Z,7.54
2023-12-02T13:32:43.508Z,7.53
2023-12-02T13:35:13.444Z,7.50
2023-12-02T13:38:04.847Z,7.51
2023-12-02T13:40:53.330Z,7.54
2023-12-02T13:43:23.922Z,7.53
2023-12-02T13:45:58.415Z,7.54
2023-12-02T13:48:30.750Z,7.57
2023-12-02T13:51:07.700Z,7.61
2023-12-02T13:53:47.963Z,7.58
2023-12-02T13:56:25.229Z,7.59
2023-12-02T13:59:14.419Z,7.58
2023-12-02T14:01:59.825Z,7.54
2023-12-02T14:04:54.594Z,7.56
2023-12-02T14:07:28.668Z,7.55
2023-12-02T14:09:56.734Z,7.56
2023-12-02T14:12:30.198Z,7.59
2023-12-02T14:15:09.247Z,7.57
2023-12-02T14:17:46.010Z,7.57
2023-12-02T14:20:42.950Z,7.59
2023-12-02T14:23:24.768Z,7.56
2023-12-02T14:26:53.072Z,7.57
2023-12-02T14:29:30.845Z,7.60
2023-12-02T14:32:09.139Z,7.58
2023-12-02T14:34:41.749Z,7.57
2023-12-02T14:37:33.372Z,7.59
2023-12-02T14:40:19.762Z,7.60
2023-12-02T14:43:26.580Z,7.59
2023-12-02T14:45:58.573Z,7.59
2023-12-02T14:48:27.563Z,7.63
2023-12-02T14:50:55.103Z,7.67
2023-12-02T14:53:22.655Z,7.66
2023-12-02T14:55:49.504Z,7.66
2023-12-02T14:58:20.762Z,7.67
2023-12-02T15:00:57.102Z,7.66
2023-12-02T15:03:27.290Z,7.67
2023-12-02T15:05:56.778Z,7.67
2023-12-02T15:08:23.726Z,7.67
2023-12-02T15:10:52.616Z,7.67
2023-12-02T15:13:23.485Z,7.70
2023-12-02T15:15:53.813Z,7.69
2023-12-02T15:18:27.067Z,7.70
2023-12-02T15:21:03.691Z,7.71
2023-12-02T15:23:30.511Z,7.67
2023-12-02T15:25:58.678Z,7.70
2023-12-02T15:28:31.389Z,7.67
2023-12-02T15:31:13.409Z,7.67
2023-12-02T15:33:49.124Z,7.65
2023-12-02T15:36:17.533Z,7.66
2023-12-02T15:38:46.779Z,7.62
2023-12-02T15:41:15.357Z,7.62
2023-12-02T15:43:42.431Z,7.61
2023-12-02T15:46:09.287Z,7.64
2023-12-02T15:48:39.663Z,7.59
2023-12-02T15:51:07.338Z,7.63
2023-12-02T15:53:35.686Z,7.62
2023-12-02T15:56:03.189Z,7.62
2023-12-02T15:58:32.394Z,7.59
2023-12-02T16:01:03.238Z,7.58
2023-12-02T16:03:30.548Z,7.59
2023-12-02T16:05:57.603Z,7.57
2023-12-02T16:08:25.360Z,7.58
2023-12-02T16:11:05.702Z,7.57
2023-12-02T16:13:38.131Z,7.55
2023-12-02T16:16:09.616Z,7.60
2023-12-02T16:18:38.819Z,7.57
2023-12-02T16:21:13.231Z,7.56
2023-12-02T16:23:40.271Z,7.57
2023-12-02T16:26:08.815Z,7.57
2023-12-02T16:28:36.739Z,7.57
2023-12-02T16:31:04.928Z,7.59
2023-12-02T16:33:32.095Z,7.57
2023-12-02T16:36:00.784Z,7.55
2023-12-02T16:38:28.766Z,7.56
2023-12-02T16:40:55.760Z,7.55
2023-12-02T16:43:23.546Z,7.55
2023-12-02T16:45:56.256Z,7.54
2023-12-02T16:48:23.792Z,7.49
2023-12-02T16:50:52.344Z,7.48
2023-12-02T16:53:24.718Z,7.48
2023-12-02T16:56:05.928Z,7.48
2023-12-02T16:58:42.492Z,7.45
2023-12-02T17:01:15.550Z,7.45
2023-12-02T17:03:42.442Z,7.38
2023-12-02T17:06:19.894Z,7.44
2023-12-02T17:08:47.673Z,7.42
2023-12-02T17:11:17.308Z,7.42
2023-12-02T17:13:59.738Z,7.43
2023-12-02T17:16:33.532Z,7.44
2023-12-02T17:19:01.440Z,7.40
2023-12-02T17:21:34.370Z,7.41
2023-12-02T17:24:02.106Z,7.36
2023-12-02T17:26:30.898Z,7.44
2023-12-02T17:28:57.724Z,7.46
2023-12-02T17:31:24.763Z,7.44
2023-12-02T17:33:52.067Z,7.48
2023-12-02T17:36:19.086Z,7.50
2023-12-02T17:38:45.946Z,7.49
2023-12-02T17:41:13.110Z,7.40
2023-12-02T17:43:39.890Z,7.46
2023-12-02T17:46:07.455Z,7.45
2023-12-02T17:48:34.404Z,7.55
2023-12-02T17:51:01.337Z,7.53
2023-12-02T17:53:28.304Z,7.46
2023-12-02T17:55:55.147Z,7.50
2023-12-02T17:58:21.939Z,7.61
2023-12-02T18:00:48.869Z,7.63
2023-12-02T18:03:16.122Z,7.66
2023-12-02T18:05:42.986Z,7.68
2023-12-02T18:08:11.006Z,7.66
2023-12-02T18:10:37.784Z,7.67
2023-12-02T18:13:04.666Z,7.71
2023-12-02T18:15:33.557Z,7.72
2023-12-02T18:18:00.468Z,7.72
2023-12-02T18:20:27.524Z,7.71
2023-12-02T18:22:54.425Z,7.70
2023-12-02T18:25:21.276Z,7.72
2023-12-02T18:27:48.238Z,7.69
2023-12-02T18:30:15.620Z,7.65
2023-12-02T18:32:42.477Z,7.66
2023-12-02T18:35:09.506Z,7.65
2023-12-02T18:37:36.867Z,7.64
2023-12-02T18:40:05.266Z,7.63
2023-12-02T18:42:32.185Z,7.61
2023-12-02T18:44:59.054Z,7.63
2023-12-02T18:47:25.857Z,7.66
2023-12-02T18:49:53.845Z,7.67
2023-12-02T18:52:20.688Z,7.65
2023-12-02T18:54:47.566Z,7.64
2023-12-02T18:57:14.391Z,7.64
2023-12-02T18:59:41.229Z,7.66
2023-12-02T19:02:08.126Z,7.70
2023-12-02T19:04:35.136Z,7.68
2023-12-02T19:07:02.316Z,7.68
2023-12-02T19:09:29.160Z,7.70
2023-12-02T19:11:56.047Z,7.69
2023-12-02T19:14:22.894Z,7.74
2023-12-02T19:16:49.751Z,7.73
2023-12-02T19:19:16.640Z,7.71
2023-12-02T19:21:43.727Z,7.75
2023-12-02T19:24:10.702Z,7.78
2023-12-02T19:26:37.691Z,7.75
2023-12-02T19:29:04.555Z,7.74
2023-12-02T19:31:31.427Z,7.81
2023-12-02T19:33:59.264Z,7.87
2023-12-02T19:36:26.108Z,7.86
2023-12-02T19:38:53.475Z,7.89
2023-12-02T19:41:20.262Z,7.93
2023-12-02T19:43:47.138Z,7.98
2023-12-02T19:46:13.969Z,8.00
2023-12-02T19:48:43.015Z,8.01
2023-12-02T19:51:09.950Z,8.04
2023-12-02T19:53:37.906Z,8.07
2023-12-02T19:56:04.937Z,8.10
2023-12-02T19:58:31.786Z,8.08
2023-12-02T20:00:58.609Z,8.11
2023-12-02T20:03:28.086Z,8.11
2023-12-02T20:05:55.698Z,8.14
2023-12-02T20:08:22.504Z,8.16
2023-12-02T20:10:49.323Z,8.14
2023-12-02T20:13:16.218Z,8.16
2023-12-02T20:15:43.149Z,8.14
2023-12-02T20:18:10.111Z,8.13
2023-12-02T20:20:38.549Z,8.14
2023-12-02T20:23:07.155Z,8.13
2023-12-02T20:25:33.983Z,8.12
2023-12-02T20:28:00.979Z,8.09
2023-12-02T20:30:27.943Z,8.06
2023-12-02T20:32:54.772Z,8.04
2023-12-02T20:35:21.953Z,8.04
2023-12-02T20:37:48.793Z,8.03
2023-12-02T20:40:15.742Z,8.03
2023-12-02T20:42:43.156Z,8.02
2023-12-02T20:45:10.489Z,8.02
2023-12-02T20:47:37.776Z,8.04
2023-12-02T20:50:05.052Z,8.05
2023-12-02T20:52:31.851Z,8.03
2023-12-02T20:54:58.725Z,8.02
2023-12-02T20:57:25.580Z,8.03
2023-12-02T20:59:52.383Z,8.00
2023-12-02T21:02:19.187Z,7.96
2023-12-02T21:04:46.027Z,7.92
2023-12-02T21:07:12.903Z,7.88
2023-12-02T21:09:41.258Z,7.88
2023-12-02T21:12:08.462Z,7.84
2023-12-02T21:14:35.268Z,7.83
2023-12-02T21:17:02.109Z,7.81
2023-12-02T21:19:29.922Z,7.78
2023-12-02T21:21:57.061Z,7.77
2023-12-02T21:24:23.897Z,7.74
2023-12-02T21:26:50.719Z,7.72
2023-12-02T21:29:22.248Z,7.71
2023-12-02T21:31:50.149Z,7.69
2023-12-02T21:34:17.922Z,7.72
2023-12-02T21:36:45.013Z,7.72
2023-12-02T21:39:21.830Z,7.70
2023-12-02T21:41:49.431Z,7.72
2023-12-02T21:44:19.503Z,7.70
2023-12-02T21:46:47.074Z,7.66
2023-12-02T21:49:20.537Z,7.67
2023-12-02T21:51:48.512Z,7.63
2023-12-02T21:54:19.277Z,7.62
2023-12-02T21:56:57.783Z,7.62
2023-12-02T21:59:25.485Z,7.61
2023-12-02T22:01:53.958Z,7.60
2023-12-02T22:04:39.534Z,7.61
2023-12-02T22:07:06.461Z,7.59
2023-12-02T22:09:42.532Z,7.58
2023-12-02T22:12:21.314Z,7.61
2023-12-02T22:14:49.456Z,7.62
2023-12-02T22:17:23.337Z,7.62
2023-12-02T22:19:51.370Z,7.63
2023-12-02T22:22:39.741Z,7.62
2023-12-02T22:25:06.892Z,7.62
2023-12-02T22:27:38.703Z,7.62
2023-12-02T22:30:24.239Z,7.61
2023-12-02T22:33:00.080Z,7.60
2023-12-02T22:35:40.194Z,7.60
2023-12-02T22:38:11.592Z,7.59
2023-12-02T22:40:45.001Z,7.57
2023-12-02T22:43:20.770Z,7.57
2023-12-02T22:45:47.809Z,7.54
2023-12-02T22:48:38.986Z,7.49
2023-12-02T22:51:07.305Z,7.49
2023-12-02T22:53:36.061Z,7.50
2023-12-02T22:56:03.727Z,7.47
2023-12-02T22:58:39.108Z,7.46
2023-12-02T23:01:09.779Z,7.46
2023-12-02T23:03:43.380Z,7.42
2023-12-02T23:06:10.631Z,7.42
2023-12-02T23:08:37.729Z,7.39
2023-12-02T23:11:05.432Z,7.38
2023-12-02T23:13:35.897Z,7.38
2023-12-02T23:16:05.628Z,7.36
2023-12-02T23:18:33.709Z,7.35
2023-12-02T23:21:01.885Z,7.33
2023-12-02T23:23:31.225Z,7.32
2023-12-02T23:25:58.066Z,7.28
2023-12-02T23:28:25.053Z,7.26
2023-12-02T23:30:52.858Z,7.26
2023-12-02T23:33:19.983Z,7.24
2023-12-02T23:35:46.970Z,7.24
2023-12-02T23:38:13.760Z,7.22
2023-12-02T23:40:49.506Z,7.24
2023-12-02T23:43:36.889Z,7.24
2023-12-02T23:46:04.436Z,7.25
2023-12-02T23:48:31.346Z,7.26
2023-12-02T23:50:58.220Z,7.28
2023-12-02T23:53:25.141Z,7.27
2023-12-02T23:55:52.886Z,7.28
2023-12-02T23:58:19.746Z,7.28
